Time;durP1;ratioP1;P1;durP2;ratioP2;P2;SDS_P1;SDS_P2;PMS_P1;PMS_P2;Temp;Humidity;BMP_temperature;BMP_pressure;BME280_temperature;BME280_humidity;BME280_pressure;Samples;Min_cycle;Max_cycle;Signal;HPM_P1;HPM_P2
2023/07/12 00:01:27;;;;;;;2.63;2.20;;;;;;;22.75;100.00;99772.16;5060408;28;20197;-74
2023/07/12 00:03:53;;;;;;;2.20;2.00;;;;;;;22.76;100.00;99773.88;5058104;28;20211;-74
2023/07/12 00:06:23;;;;;;;2.60;2.40;;;;;;;22.75;100.00;99781.84;5059297;28;20192;-74
2023/07/12 00:08:48;;;;;;;2.33;1.93;;;;;;;22.77;100.00;99772.06;5063481;28;20252;-74
2023/07/12 00:11:15;;;;;;;1.60;1.50;;;;;;;22.79;100.00;99778.91;5063725;28;20186;-74
2023/07/12 00:13:41;;;;;;;3.10;1.97;;;;;;;22.82;100.00;99775.22;5067988;28;20186;-74
2023/07/12 00:16:26;;;;;;;2.40;1.87;;;;;;;22.80;100.00;99772.69;5067780;28;20202;-75
2023/07/12 00:18:53;;;;;;;3.67;1.90;;;;;;;22.79;100.00;99768.34;5067926;28;20197;-75
2023/07/12 00:21:22;;;;;;;2.40;1.97;;;;;;;22.75;100.00;99755.47;5069616;28;20178;-75
2023/07/12 00:23:52;;;;;;;2.90;2.00;;;;;;;22.77;100.00;99750.94;5068049;28;20274;-75
2023/07/12 00:26:34;;;;;;;2.67;2.00;;;;;;;22.76;100.00;99760.69;5065110;28;20210;-76
2023/07/12 00:29:01;;;;;;;3.10;1.80;;;;;;;22.75;100.00;99769.53;5069876;28;20769;-75
2023/07/12 00:31:27;;;;;;;2.60;2.03;;;;;;;22.76;100.00;99771.22;5073096;28;20209;-75
2023/07/12 00:33:53;;;;;;;1.80;1.70;;;;;;;22.75;100.00;99769.53;5065919;28;20182;-75
2023/07/12 00:36:22;;;;;;;2.30;2.10;;;;;;;22.76;100.00;99775.63;5068052;28;20702;-74
2023/07/12 00:38:48;;;;;;;2.27;2.03;;;;;;;22.75;100.00;99768.66;5066584;28;20258;-75
2023/07/12 00:41:25;;;;;;;2.57;2.10;;;;;;;22.75;100.00;99780.09;5067649;28;21959;-74
2023/07/12 00:44:13;;;;;;;2.20;2.00;;;;;;;22.75;100.00;99785.34;5059477;28;20208;-74
2023/07/12 00:46:47;;;;;;;3.03;2.17;;;;;;;22.75;100.00;99776.59;5066812;28;20193;-75
2023/07/12 00:49:12;;;;;;;2.90;2.13;;;;;;;22.75;100.00;99777.44;5068838;28;20270;-75
2023/07/12 00:52:04;;;;;;;2.17;2.07;;;;;;;22.76;100.00;99775.63;5063730;28;20190;-74
2023/07/12 00:54:53;;;;;;;2.17;1.97;;;;;;;22.76;100.00;99751.91;5071325;28;20192;-74
2023/07/12 00:57:20;;;;;;;2.77;2.17;;;;;;;22.77;100.00;99743.03;5063000;28;20190;-75
2023/07/12 00:59:45;;;;;;;4.10;2.30;;;;;;;22.77;100.00;99753.59;5062601;28;20280;-75
2023/07/12 01:02:13;;;;;;;3.33;2.23;;;;;;;22.78;100.00;99747.38;5060058;28;20809;-74
2023/07/12 01:04:48;;;;;;;2.33;2.13;;;;;;;22.76;100.00;99747.47;5060897;28;20417;-74
2023/07/12 01:07:15;;;;;;;2.27;2.07;;;;;;;22.76;100.00;99751.91;5059409;28;20186;-73
2023/07/12 01:09:41;;;;;;;2.60;2.30;;;;;;;22.76;100.00;99736.94;5064368;28;20210;-74
2023/07/12 01:12:06;;;;;;;2.47;2.23;;;;;;;22.77;100.00;99724.56;5058822;28;20189;-73
2023/07/12 01:14:32;;;;;;;2.20;1.97;;;;;;;22.76;100.00;99705.28;5065072;28;20186;-74
2023/07/12 01:17:01;;;;;;;2.47;1.90;;;;;;;22.76;100.00;99710.56;5064764;28;20193;-74
2023/07/12 01:19:28;;;;;;;3.80;2.20;;;;;;;22.75;100.00;99702.72;5062376;28;20343;-74
2023/07/12 01:21:54;;;;;;;2.63;1.87;;;;;;;22.71;100.00;99673.09;5062653;28;20664;-74
2023/07/12 01:24:22;;;;;;;3.40;2.20;;;;;;;22.67;100.00;99675.09;5064703;28;20574;-74
2023/07/12 01:26:50;;;;;;;2.33;2.13;;;;;;;22.63;100.00;99672.75;5064725;28;20671;-74
2023/07/12 01:29:16;;;;;;;2.43;2.23;;;;;;;22.59;100.00;99671.31;5063710;28;20275;-74
2023/07/12 01:31:43;;;;;;;3.17;2.20;;;;;;;22.55;100.00;99675.09;5061219;28;20182;-74
2023/07/12 01:34:09;;;;;;;2.90;2.37;;;;;;;22.50;100.00;99673.63;5059575;28;20756;-74
2023/07/12 01:36:35;;;;;;;3.57;2.53;;;;;;;22.47;100.00;99679.09;5061628;28;20192;-74
2023/07/12 01:39:03;;;;;;;2.37;2.17;;;;;;;22.46;100.00;99695.88;5066210;28;20640;-74
2023/07/12 01:41:28;;;;;;;2.80;2.50;;;;;;;22.44;100.00;99694.28;5064063;28;20221;-74
2023/07/12 01:43:54;;;;;;;3.83;2.47;;;;;;;22.44;100.00;99681.09;5065470;28;20645;-74
2023/07/12 01:46:20;;;;;;;2.70;2.50;;;;;;;22.43;100.00;99689.97;5063650;28;20205;-74
2023/07/12 01:48:45;;;;;;;4.43;2.83;;;;;;;22.38;100.00;99700.78;5062984;28;20299;-75
2023/07/12 01:51:11;;;;;;;2.47;2.23;;;;;;;22.29;100.00;99707.53;5057712;28;20196;-74
2023/07/12 01:53:37;;;;;;;3.83;2.73;;;;;;;22.26;100.00;99704.28;5062067;28;20669;-74
2023/07/12 01:56:03;;;;;;;2.73;2.50;;;;;;;22.22;100.00;99717.66;5062655;28;20194;-74
2023/07/12 01:58:29;;;;;;;2.93;2.73;;;;;;;22.20;100.00;99718.72;5063213;28;20213;-74
2023/07/12 02:00:55;;;;;;;3.77;2.90;;;;;;;22.17;100.00;99717.09;5063739;28;20209;-74
2023/07/12 02:03:21;;;;;;;3.30;2.87;;;;;;;22.14;100.00;99717.31;5062859;28;20783;-73
2023/07/12 02:05:47;;;;;;;3.50;2.70;;;;;;;22.10;100.00;99707.94;5062905;28;20213;-74
2023/07/12 02:08:13;;;;;;;3.93;2.70;;;;;;;22.05;100.00;99705.59;5064040;28;20210;-74
2023/07/12 02:10:38;;;;;;;2.73;2.40;;;;;;;22.03;100.00;99706.63;5064631;28;20537;-74
2023/07/12 02:13:04;;;;;;;3.20;2.60;;;;;;;22.00;100.00;99710.31;5064650;28;20738;-74
2023/07/12 02:15:30;;;;;;;2.40;2.20;;;;;;;21.97;100.00;99705.25;5065097;28;21063;-74
2023/07/12 02:17:56;;;;;;;4.17;2.83;;;;;;;21.96;100.00;99708.00;5064415;28;20243;-74
2023/07/12 02:20:22;;;;;;;4.33;2.60;;;;;;;21.92;100.00;99710.81;5064165;28;20192;-74
2023/07/12 02:22:49;;;;;;;3.33;2.73;;;;;;;21.92;100.00;99702.09;5066200;28;20182;-73
2023/07/12 02:25:14;;;;;;;2.67;2.47;;;;;;;21.88;100.00;99704.06;5067646;28;20213;-73
2023/07/12 02:27:41;;;;;;;2.83;2.63;;;;;;;21.88;100.00;99709.34;5067309;28;20962;-73
2023/07/12 02:30:11;;;;;;;2.70;2.50;;;;;;;21.88;100.00;99705.88;5060017;28;20254;-74
2023/07/12 02:32:36;;;;;;;3.00;2.50;;;;;;;21.86;100.00;99694.59;5064306;28;20181;-74
2023/07/12 02:35:02;;;;;;;2.57;2.37;;;;;;;21.85;100.00;99704.28;5064742;28;20173;-75
2023/07/12 02:37:28;;;;;;;2.93;2.73;;;;;;;21.82;100.00;99701.84;5065600;28;20193;-74
2023/07/12 02:39:53;;;;;;;2.90;2.70;;;;;;;21.84;100.00;99701.75;5065726;28;20216;-74
2023/07/12 02:42:18;;;;;;;2.63;2.43;;;;;;;21.83;100.00;99702.69;5065168;28;20717;-74
2023/07/12 02:44:44;;;;;;;2.73;2.50;;;;;;;21.81;100.00;99694.91;5063425;28;21261;-74
2023/07/12 02:47:10;;;;;;;2.60;2.40;;;;;;;21.81;100.00;99689.63;5060910;28;20182;-74
2023/07/12 02:49:37;;;;;;;2.97;2.43;;;;;;;21.83;100.00;99686.88;5063003;28;20209;-74
2023/07/12 02:52:04;;;;;;;3.43;2.83;;;;;;;21.81;100.00;99684.34;5060787;28;20185;-74
2023/07/12 02:54:30;;;;;;;2.57;2.27;;;;;;;21.83;100.00;99694.78;5063305;28;20306;-74
2023/07/12 02:56:55;;;;;;;3.10;2.73;;;;;;;21.82;100.00;99688.69;5062664;28;20182;-74
2023/07/12 02:59:21;;;;;;;3.17;2.87;;;;;;;21.82;100.00;99693.09;5060874;28;21006;-74
2023/07/12 03:01:47;;;;;;;3.70;2.50;;;;;;;21.81;100.00;99692.25;5060181;28;20194;-74
2023/07/12 03:04:13;;;;;;;2.90;2.70;;;;;;;21.80;100.00;99681.81;5062777;28;20293;-74
2023/07/12 03:06:38;;;;;;;3.60;2.77;;;;;;;21.78;100.00;99688.00;5059200;28;20851;-74
2023/07/12 03:09:05;;;;;;;3.30;3.00;;;;;;;21.77;100.00;99694.25;5058867;28;20215;-74
2023/07/12 03:11:30;;;;;;;3.70;3.40;;;;;;;21.78;100.00;99700.34;5059340;28;20193;-74
2023/07/12 03:13:56;;;;;;;6.70;3.37;;;;;;;21.76;100.00;99694.34;5060548;28;20185;-74
2023/07/12 03:16:21;;;;;;;4.87;3.43;;;;;;;21.75;100.00;99693.50;5066715;28;20617;-74
2023/07/12 03:18:46;;;;;;;4.43;3.30;;;;;;;21.75;100.00;99680.34;5062956;28;20293;-73
2023/07/12 03:21:12;;;;;;;3.50;3.13;;;;;;;21.75;100.00;99682.13;5059218;28;21762;-74
2023/07/12 03:23:37;;;;;;;3.23;2.93;;;;;;;21.74;100.00;99686.56;5062160;28;20182;-74
2023/07/12 03:26:03;;;;;;;3.53;3.23;;;;;;;21.75;100.00;99704.03;5059190;28;20197;-74
2023/07/12 03:28:29;;;;;;;4.40;3.77;;;;;;;21.75;100.00;99695.28;5060236;28;20217;-74
2023/07/12 03:31:03;;;;;;;4.70;3.70;;;;;;;21.76;100.00;99700.47;5062607;28;20269;-74
2023/07/12 03:33:29;;;;;;;3.40;3.10;;;;;;;21.74;100.00;99709.41;5058929;28;20177;-74
2023/07/12 03:35:55;;;;;;;3.60;3.30;;;;;;;21.74;100.00;99719.94;5056792;28;20194;-74
2023/07/12 03:38:22;;;;;;;3.70;3.03;;;;;;;21.74;100.00;99719.94;5062573;28;20762;-74
2023/07/12 03:40:47;;;;;;;3.43;3.13;;;;;;;21.74;100.00;99726.06;5059040;28;20830;-74
2023/07/12 03:43:13;;;;;;;3.83;3.30;;;;;;;21.74;100.00;99733.09;5062938;28;20184;-74
2023/07/12 03:45:39;;;;;;;3.37;3.10;;;;;;;21.75;100.00;99745.31;5064635;28;20193;-73
2023/07/12 03:48:04;;;;;;;3.57;3.27;;;;;;;21.77;100.00;99759.25;5063728;28;20201;-74
2023/07/12 03:50:29;;;;;;;3.30;3.00;;;;;;;21.80;100.00;99761.69;5066253;28;20186;-74
2023/07/12 03:52:55;;;;;;;3.80;3.50;;;;;;;21.85;100.00;99761.38;5067783;28;20194;-74
2023/07/12 03:55:20;;;;;;;3.93;3.53;;;;;;;21.88;100.00;99754.13;5066536;28;20271;-74
2023/07/12 03:57:45;;;;;;;4.27;3.53;;;;;;;21.92;100.00;99739.81;5067660;28;20177;-74
2023/07/12 04:00:15;;;;;;;3.77;3.37;;;;;;;21.97;100.00;99739.50;5068788;28;20811;-74
2023/07/12 04:02:41;;;;;;;4.47;4.07;;;;;;;22.01;100.00;99738.38;5069198;28;20189;-74
2023/07/12 04:05:06;;;;;;;4.30;3.90;;;;;;;22.03;100.00;99752.28;5066747;28;20208;-74
2023/07/12 04:07:32;;;;;;;3.97;3.57;;;;;;;22.07;100.00;99761.69;5066444;28;20193;-74
2023/07/12 04:09:57;;;;;;;4.30;3.50;;;;;;;22.13;100.00;99773.59;5061482;28;20876;-74
2023/07/12 04:12:23;;;;;;;3.90;3.50;;;;;;;22.17;100.00;99769.81;5064136;28;20249;-74
2023/07/12 04:14:48;;;;;;;6.30;3.87;;;;;;;22.24;100.00;99778.16;5066874;28;20178;-74
2023/07/12 04:17:14;;;;;;;4.43;4.03;;;;;;;22.29;100.00;99783.13;5068472;28;20190;-74
2023/07/12 04:19:39;;;;;;;4.60;3.80;;;;;;;22.35;100.00;99788.84;5065567;28;20210;-74
2023/07/12 04:22:04;;;;;;;4.27;3.87;;;;;;;22.42;100.00;99788.47;5062522;28;20182;-75
2023/07/12 04:24:30;;;;;;;5.33;4.10;;;;;;;22.50;100.00;99783.53;5064607;28;20210;-74
2023/07/12 04:26:57;;;;;;;10.63;4.93;;;;;;;22.58;100.00;99798.84;5064767;28;20685;-75
2023/07/12 04:29:22;;;;;;;5.97;4.47;;;;;;;22.66;100.00;99799.16;5068240;28;20209;-75
2023/07/12 04:31:48;;;;;;;8.43;4.57;;;;;;;22.71;100.00;99804.09;5065592;28;20182;-75
2023/07/12 04:34:13;;;;;;;4.83;4.33;;;;;;;22.73;100.00;99803.06;5068751;28;20722;-74
2023/07/12 04:36:39;;;;;;;5.27;4.43;;;;;;;22.76;100.00;99809.94;5063766;28;20186;-74
2023/07/12 04:39:04;;;;;;;5.50;4.60;;;;;;;22.79;100.00;99801.81;5066578;28;20255;-74
2023/07/12 04:41:29;;;;;;;4.80;4.40;;;;;;;22.84;100.00;99808.47;5059849;28;20189;-75
2023/07/12 04:43:55;;;;;;;5.10;4.60;;;;;;;22.90;100.00;99812.47;5068041;28;20218;-75
2023/07/12 04:46:20;;;;;;;7.83;5.10;;;;;;;22.92;100.00;99813.22;5067601;28;20273;-74
2023/07/12 04:48:45;;;;;;;7.83;5.20;;;;;;;22.96;100.00;99813.84;5061454;28;20213;-75
2023/07/12 04:51:11;;;;;;;5.33;4.47;;;;;;;22.98;100.00;99817.22;5063916;28;20190;-75
2023/07/12 04:53:36;;;;;;;4.43;4.03;;;;;;;23.03;100.00;99825.69;5064637;28;20202;-75
2023/07/12 04:56:02;;;;;;;5.37;4.53;;;;;;;23.08;100.00;99835.91;5069273;28;20276;-75
2023/07/12 04:58:27;;;;;;;5.50;4.67;;;;;;;23.14;100.00;99838.97;5067219;28;20213;-75
2023/07/12 05:00:55;;;;;;;6.63;4.50;;;;;;;23.22;100.00;99842.91;5065580;28;20185;-75
2023/07/12 05:03:20;;;;;;;5.17;4.40;;;;;;;23.29;100.00;99842.38;5066874;28;20323;-75
2023/07/12 05:05:45;;;;;;;5.20;4.70;;;;;;;23.37;100.00;99830.44;5065232;28;20757;-74
2023/07/12 05:08:11;;;;;;;5.13;4.70;;;;;;;23.45;100.00;99843.94;5061900;28;20778;-74
2023/07/12 05:10:37;;;;;;;5.07;4.20;;;;;;;23.53;100.00;99849.53;5060397;28;20212;-75
2023/07/12 05:13:03;;;;;;;5.47;4.57;;;;;;;23.63;100.00;99851.50;5061079;28;20281;-75
2023/07/12 05:15:28;;;;;;;5.33;4.83;;;;;;;23.70;100.00;99850.97;5061817;28;20186;-75
2023/07/12 05:17:54;;;;;;;4.70;4.10;;;;;;;23.78;100.00;99855.72;5062462;28;20549;-75
2023/07/12 05:20:19;;;;;;;5.70;4.73;;;;;;;23.82;100.00;99854.53;5057297;28;20545;-75
2023/07/12 05:22:47;;;;;;;6.20;4.53;;;;;;;23.87;100.00;99859.50;5064874;28;20186;-75
2023/07/12 05:25:13;;;;;;;7.63;5.53;;;;;;;23.94;100.00;99865.19;5067750;28;20208;-75
2023/07/12 05:27:39;;;;;;;4.97;4.27;;;;;;;24.01;100.00;99867.31;5066278;28;20182;-75
2023/07/12 05:30:05;;;;;;;4.90;4.47;;;;;;;24.10;100.00;99867.59;5065620;28;20189;-75
2023/07/12 05:32:30;;;;;;;5.03;4.13;;;;;;;24.23;100.00;99880.75;5064242;28;20190;-74
2023/07/12 05:34:56;;;;;;;4.83;4.23;;;;;;;24.32;100.00;99873.00;5061850;28;20197;-76
2023/07/12 05:37:22;;;;;;;5.13;4.70;;;;;;;24.40;100.00;99879.53;5064621;28;20186;-75
2023/07/12 05:39:47;;;;;;;7.77;4.63;;;;;;;24.43;100.00;99888.09;5067436;28;20213;-75
2023/07/12 05:42:13;;;;;;;5.33;4.83;;;;;;;24.49;100.00;99886.78;5065616;28;20572;-75
2023/07/12 05:44:38;;;;;;;7.37;5.47;;;;;;;24.53;100.00;99888.25;5065966;28;20217;-75
2023/07/12 05:47:04;;;;;;;6.10;5.13;;;;;;;24.62;100.00;99879.63;5067416;28;20277;-75
2023/07/12 05:49:29;;;;;;;6.70;5.17;;;;;;;24.68;100.00;99890.72;5060998;28;20213;-74
2023/07/12 05:51:54;;;;;;;5.30;4.50;;;;;;;24.75;100.00;99890.16;5064219;28;20822;-75
2023/07/12 05:54:20;;;;;;;6.43;5.30;;;;;;;24.82;100.00;99887.91;5062415;28;20235;-75
2023/07/12 05:56:46;;;;;;;5.83;5.03;;;;;;;24.87;100.00;99895.50;5062770;28;20186;-75
2023/07/12 05:59:11;;;;;;;6.97;5.20;;;;;;;24.87;100.00;99901.66;5065716;28;20225;-75
2023/07/12 06:01:36;;;;;;;7.23;5.30;;;;;;;24.84;100.00;99893.94;5064450;28;20259;-75
2023/07/12 06:04:02;;;;;;;5.50;5.00;;;;;;;24.80;100.00;99895.97;5067017;28;20247;-75
2023/07/12 06:06:27;;;;;;;8.97;4.90;;;;;;;24.75;100.00;99892.81;5060993;28;20193;-75
2023/07/12 06:08:53;;;;;;;5.53;4.87;;;;;;;24.75;100.00;99895.47;5060045;28;20990;-75
2023/07/12 06:11:18;;;;;;;4.83;4.33;;;;;;;24.78;100.00;99897.88;5057084;28;20198;-75
2023/07/12 06:13:44;;;;;;;5.33;4.57;;;;;;;24.98;100.00;99905.28;5058274;28;20670;-75
2023/07/12 06:16:09;;;;;;;4.97;4.47;;;;;;;25.13;100.00;99900.59;5057996;28;20269;-76
2023/07/12 06:18:34;;;;;;;6.73;5.10;;;;;;;25.18;100.00;99894.03;5070916;28;20209;-75
2023/07/12 06:21:02;;;;;;;5.07;4.50;;;;;;;25.22;100.00;99906.03;5077716;28;20178;-75
2023/07/12 06:23:27;;;;;;;5.80;4.63;;;;;;;25.27;100.00;99906.53;5085416;28;20215;-75
2023/07/12 06:25:57;;;;;;;7.73;4.83;;;;;;;25.35;100.00;99902.44;5059644;28;20218;-75
2023/07/12 06:28:23;;;;;;;5.73;5.00;;;;;;;25.55;100.00;99907.06;5057129;28;20705;-75
2023/07/12 06:30:48;;;;;;;6.33;5.13;;;;;;;25.83;100.00;99904.88;5056014;28;20190;-75
2023/07/12 06:33:14;;;;;;;4.93;4.23;;;;;;;26.19;100.00;99902.09;5057912;28;20195;-74
2023/07/12 06:35:39;;;;;;;5.30;4.70;;;;;;;26.62;100.00;99901.22;5056186;28;20662;-75
2023/07/12 06:38:04;;;;;;;8.90;4.63;;;;;;;26.89;99.18;99904.38;5060397;28;20979;-76
2023/07/12 06:40:30;;;;;;;5.07;4.00;;;;;;;27.13;99.03;99898.81;5060468;28;20197;-75
2023/07/12 06:42:56;;;;;;;4.40;4.00;;;;;;;27.51;97.40;99910.66;5060456;28;20189;-75
2023/07/12 06:45:22;;;;;;;5.10;4.10;;;;;;;27.91;95.25;99906.31;5061811;28;20218;-75
2023/07/12 06:47:47;;;;;;;4.13;3.73;;;;;;;28.18;93.41;99899.56;5065067;28;20841;-75
2023/07/12 06:50:13;;;;;;;7.87;4.13;;;;;;;28.50;91.12;99906.47;5062187;28;20178;-75
2023/07/12 06:52:38;;;;;;;4.95;4.10;;;;;;;28.85;90.37;99909.56;5066372;28;20261;-76
2023/07/12 06:55:04;;;;;;;5.85;3.83;;;;;;;28.97;89.27;99920.88;5064484;28;20270;-75
2023/07/12 06:57:29;;;;;;;5.65;3.78;;;;;;;28.92;88.79;99926.63;5065410;28;20836;-75
2023/07/12 06:59:54;;;;;;;5.43;4.30;;;;;;;28.81;87.53;99927.66;5062842;28;20271;-75
2023/07/12 07:02:20;;;;;;;6.60;4.10;;;;;;;28.67;88.02;99926.19;5064015;28;20198;-75
2023/07/12 07:04:45;;;;;;;5.85;3.75;;;;;;;28.76;87.72;99924.56;5065790;28;20201;-75
2023/07/12 07:07:11;;;;;;;4.65;4.20;;;;;;;29.03;87.90;99926.50;5064400;28;20194;-75
2023/07/12 07:09:38;;;;;;;4.35;3.65;;;;;;;29.75;86.72;99918.00;5064596;28;20335;-75
2023/07/12 07:12:05;;;;;;;9.93;4.57;;;;;;;29.90;83.69;99922.84;5065298;28;20184;-75
2023/07/12 07:14:30;;;;;;;5.40;4.00;;;;;;;29.94;83.38;99918.91;5065074;28;20281;-76
2023/07/12 07:16:55;;;;;;;7.13;4.32;;;;;;;29.30;84.38;99924.03;5063428;28;20690;-75
2023/07/12 07:19:21;;;;;;;5.32;4.35;;;;;;;29.56;84.76;99924.25;5065534;28;20198;-76
2023/07/12 07:21:50;;;;;;;7.25;4.22;;;;;;;29.96;83.75;99917.78;5065544;28;20197;-75
2023/07/12 07:24:17;;;;;;;7.20;4.43;;;;;;;30.20;82.71;99928.88;5066552;28;20194;-75
2023/07/12 07:26:43;;;;;;;4.53;3.33;;;;;;;30.54;79.61;99928.22;5066912;28;20188;-76
2023/07/12 07:29:08;;;;;;;3.72;3.28;;;;;;;30.65;78.59;99937.88;5062839;28;20202;-75
2023/07/12 07:31:34;;;;;;;5.78;3.55;;;;;;;30.84;78.67;99939.53;5066564;28;20692;-75
2023/07/12 07:33:59;;;;;;;3.90;3.50;;;;;;;30.97;78.26;99947.16;5067774;28;20179;-75
2023/07/12 07:36:24;;;;;;;3.75;3.00;;;;;;;30.93;77.67;99935.94;5067803;28;20670;-77
2023/07/12 07:38:49;;;;;;;7.50;3.83;;;;;;;30.54;78.71;99939.78;5056079;28;20285;-75
2023/07/12 07:41:15;;;;;;;5.07;3.90;;;;;;;30.65;78.71;99937.88;5065308;28;20196;-75
2023/07/12 07:43:41;;;;;;;7.65;3.65;;;;;;;30.44;78.67;99941.63;5063987;28;20178;-76
2023/07/12 07:46:08;;;;;;;3.92;3.55;;;;;;;30.61;79.03;99932.00;5065908;28;20598;-75
2023/07/12 07:48:33;;;;;;;5.35;3.58;;;;;;;30.78;79.06;99940.16;5066665;28;20214;-75
2023/07/12 07:50:59;;;;;;;5.28;3.72;;;;;;;30.80;79.25;99941.69;5067915;28;20181;-75
2023/07/12 07:53:24;;;;;;;6.03;3.78;;;;;;;30.82;78.75;99941.50;5067766;28;20180;-75
2023/07/12 07:55:50;;;;;;;5.25;3.70;;;;;;;30.77;79.17;99939.31;5066091;28;20649;-75
2023/07/12 07:58:16;;;;;;;4.15;3.75;;;;;;;30.93;78.14;99946.63;5061310;28;20288;-75
2023/07/12 08:00:41;;;;;;;5.90;3.80;;;;;;;31.04;77.94;99940.19;5066544;28;20225;-75
2023/07/12 08:03:07;;;;;;;5.45;3.42;;;;;;;31.29;77.23;99943.06;5065937;28;20228;-76
2023/07/12 08:05:33;;;;;;;5.38;3.33;;;;;;;31.54;76.88;99948.56;5055146;28;20198;-75
2023/07/12 08:07:59;;;;;;;4.28;3.30;;;;;;;31.77;75.87;99954.22;5069422;28;20205;-75
2023/07/12 08:10:25;;;;;;;4.43;3.13;;;;;;;31.90;74.70;99948.44;5070627;28;20177;-76
2023/07/12 08:12:51;;;;;;;4.40;3.10;;;;;;;32.05;73.78;99948.63;5075452;28;20166;-76
2023/07/12 08:15:18;;;;;;;6.25;3.97;;;;;;;31.58;74.21;99947.25;5068814;28;20174;-75
2023/07/12 08:17:44;;;;;;;3.78;3.45;;;;;;;31.54;75.23;99949.38;5070133;28;20174;-75
2023/07/12 08:20:09;;;;;;;3.63;3.15;;;;;;;31.76;75.88;99947.19;5069827;28;20662;-76
2023/07/12 08:22:35;;;;;;;5.70;3.40;;;;;;;31.95;75.52;99945.25;5069430;28;20257;-75
2023/07/12 08:25:01;;;;;;;5.15;3.90;;;;;;;31.93;75.96;99948.94;5066401;28;20194;-75
2023/07/12 08:27:26;;;;;;;3.83;3.22;;;;;;;32.03;76.01;99954.16;5064586;28;20186;-75
2023/07/12 08:29:52;;;;;;;5.20;3.10;;;;;;;32.21;73.57;99959.38;5067703;28;20270;-75
2023/07/12 08:32:20;;;;;;;4.53;3.15;;;;;;;31.99;73.44;99965.34;5070453;28;20646;-75
2023/07/12 08:34:45;;;;;;;5.10;3.25;;;;;;;31.97;74.09;99962.00;5069533;28;20182;-75
2023/07/12 08:37:11;;;;;;;6.03;4.20;;;;;;;31.77;74.67;99967.59;5068151;28;20269;-75
2023/07/12 08:39:37;;;;;;;4.60;3.67;;;;;;;31.56;75.74;99968.78;5070925;28;20577;-75
2023/07/12 08:42:11;;;;;;;4.35;3.40;;;;;;;31.82;75.23;99962.59;5069592;28;20186;-75
2023/07/12 08:44:36;;;;;;;5.65;3.67;;;;;;;31.11;76.33;99962.63;5068189;28;20757;-76
2023/07/12 08:47:02;;;;;;;5.38;4.10;;;;;;;31.09;76.71;99972.63;5070159;28;20185;-75
2023/07/12 08:49:29;;;;;;;4.85;3.67;;;;;;;31.47;75.58;99972.41;5068934;28;20214;-74
2023/07/12 08:52:05;;;;;;;3.95;3.33;;;;;;;31.47;73.88;99972.41;5069400;28;20178;-75
2023/07/12 08:54:34;;;;;;;3.42;3.13;;;;;;;31.89;73.66;99977.00;5065604;28;20677;-74
2023/07/12 08:57:17;;;;;;;5.00;2.78;;;;;;;31.67;73.54;99985.56;5070196;28;20642;-76
2023/07/12 08:59:47;;;;;;;3.03;2.50;;;;;;;31.62;74.11;99984.19;5070176;28;20201;-75
2023/07/12 09:02:23;;;;;;;4.32;3.30;;;;;;;31.60;73.92;99980.84;5070936;28;20194;-75
2023/07/12 09:04:49;;;;;;;4.25;2.40;;;;;;;30.90;69.18;99978.13;5067993;28;20761;-75
2023/07/12 09:07:24;;;;;;;5.18;2.85;;;;;;;30.66;70.44;99976.94;5070177;28;20185;-75
2023/07/12 09:09:49;;;;;;;3.35;2.63;;;;;;;30.14;71.23;99982.88;5069671;28;20194;-75
2023/07/12 09:12:30;;;;;;;2.60;2.40;;;;;;;29.70;72.57;99988.78;5067576;28;20646;-75
2023/07/12 09:15:03;;;;;;;3.35;2.83;;;;;;;29.69;73.68;99977.28;5067783;28;20205;-75
2023/07/12 09:17:34;;;;;;;3.83;2.75;;;;;;;29.83;75.04;99970.59;5066611;28;20270;-75
2023/07/12 09:19:59;;;;;;;3.08;2.65;;;;;;;29.91;73.33;99984.06;5065842;28;20297;-75
2023/07/12 09:22:29;;;;;;;4.25;2.85;;;;;;;29.91;73.18;99986.72;5068272;28;20277;-75
2023/07/12 09:24:56;;;;;;;3.70;2.17;;;;;;;30.06;72.61;99992.44;5067397;28;20605;-75
2023/07/12 09:27:24;;;;;;;4.65;2.60;;;;;;;30.14;72.26;99989.03;5063687;28;20682;-75
2023/07/12 09:30:00;;;;;;;4.03;2.80;;;;;;;30.15;73.33;99985.38;5069173;28;20231;-75
2023/07/12 09:32:36;;;;;;;3.63;2.42;;;;;;;29.72;73.60;99982.31;5067915;28;20880;-75
2023/07/12 09:35:21;;;;;;;3.45;2.60;;;;;;;29.92;73.95;99988.41;5063530;28;20202;-74
2023/07/12 09:37:46;;;;;;;2.33;2.10;;;;;;;30.17;72.26;99983.41;5068115;28;20213;-74
2023/07/12 09:40:16;;;;;;;3.28;2.40;;;;;;;30.27;70.76;99989.50;5067788;28;20499;-74
2023/07/12 09:42:47;;;;;;;6.18;2.55;;;;;;;30.39;70.33;99984.00;5062271;28;20228;-74
2023/07/12 09:45:13;;;;;;;3.40;2.20;;;;;;;30.45;71.32;99978.03;5067388;28;20206;-73
2023/07/12 09:48:08;;;;;;;3.47;2.75;;;;;;;30.50;71.19;99982.91;5061297;28;20765;-73
2023/07/12 09:50:49;;;;;;;2.15;1.92;;;;;;;30.40;68.90;99980.34;5068252;28;20669;-74
2023/07/12 09:53:26;;;;;;;4.97;1.90;;;;;;;30.36;68.01;99971.75;5055755;28;20251;-74
2023/07/12 09:56:29;;;;;;;3.05;2.10;;;;;;;30.29;68.20;99972.50;5061815;28;20223;-74
2023/07/12 09:59:06;;;;;;;2.80;2.10;;;;;;;30.20;68.70;99975.09;5061760;28;20254;-75
2023/07/12 10:01:52;;;;;;;2.63;2.15;;;;;;;30.01;70.04;99973.38;5068211;28;20189;-74
2023/07/12 10:04:46;;;;;;;2.67;2.10;;;;;;;29.87;70.01;99982.66;5068211;28;20693;-75
2023/07/12 10:07:30;;;;;;;2.80;2.20;;;;;;;29.78;70.05;99981.72;5048317;28;20251;-74
2023/07/12 10:09:56;;;;;;;3.95;1.98;;;;;;;29.87;69.64;99984.50;5039442;28;20207;-75
2023/07/12 10:12:40;;;;;;;2.58;1.90;;;;;;;30.17;68.22;99982.56;5069446;28;20547;-75
2023/07/12 10:15:11;;;;;;;3.40;2.08;;;;;;;30.49;67.46;99981.22;5066761;28;20189;-75
2023/07/12 10:17:40;;;;;;;2.80;2.08;;;;;;;30.46;67.20;99982.38;5061932;28;20183;-75
2023/07/12 10:20:13;;;;;;;2.47;2.00;;;;;;;30.58;67.91;99982.19;5067453;28;20807;-75
2023/07/12 10:22:42;;;;;;;2.25;2.00;;;;;;;30.63;68.55;99978.06;5067365;28;20189;-75
2023/07/12 10:25:20;;;;;;;2.53;2.08;;;;;;;30.79;68.54;99976.53;5064295;28;20234;-75
2023/07/12 10:27:51;;;;;;;2.88;2.45;;;;;;;30.99;67.76;99972.72;5068681;28;20950;-75
2023/07/12 10:30:21;;;;;;;3.33;2.22;;;;;;;31.24;67.10;99975.59;5067296;28;20205;-75
2023/07/12 10:32:52;;;;;;;2.92;2.00;;;;;;;30.99;68.02;99969.22;5066622;28;20181;-75
2023/07/12 10:35:21;;;;;;;2.78;2.17;;;;;;;30.98;67.73;99980.91;5068177;28;20166;-75
2023/07/12 10:37:59;;;;;;;3.83;2.30;;;;;;;31.08;67.80;99975.47;5067222;28;20650;-75
2023/07/12 10:40:35;;;;;;;2.65;2.35;;;;;;;31.06;68.33;99972.94;5067118;28;20178;-75
2023/07/12 10:43:10;;;;;;;2.72;2.20;;;;;;;31.09;67.83;99971.78;5054177;28;20186;-75
2023/07/12 10:45:37;;;;;;;5.15;2.47;;;;;;;31.13;67.81;99970.50;5067024;28;20206;-74
2023/07/12 10:48:04;;;;;;;4.35;2.33;;;;;;;31.21;68.08;99964.38;5068835;28;20208;-75
2023/07/12 10:50:37;;;;;;;2.30;2.10;;;;;;;31.26;67.74;99968.25;5068553;28;20565;-75
2023/07/12 10:53:18;;;;;;;3.30;2.20;;;;;;;31.41;68.08;99962.34;5068241;28;20182;-76
2023/07/12 10:56:03;;;;;;;3.13;2.55;;;;;;;31.46;67.71;99960.03;5068488;28;20185;-75
2023/07/12 10:58:45;;;;;;;2.85;2.05;;;;;;;31.58;67.35;99958.75;5061726;28;20217;-74
2023/07/12 11:01:42;;;;;;;3.40;2.30;;;;;;;31.66;66.84;99955.28;5064727;28;20206;-74
2023/07/12 11:04:25;;;;;;;3.55;2.67;;;;;;;31.58;67.33;99963.28;5067162;28;20205;-74
2023/07/12 11:07:01;;;;;;;2.80;2.35;;;;;;;31.70;67.84;99947.81;5069064;28;20155;-75
2023/07/12 11:09:49;;;;;;;4.10;2.42;;;;;;;31.82;67.28;99951.91;5048755;28;20210;-75
2023/07/12 11:12:26;;;;;;;2.70;2.28;;;;;;;31.91;67.13;99955.44;5064050;28;20182;-74
2023/07/12 11:14:53;;;;;;;3.55;2.80;;;;;;;31.80;66.92;99953.91;5061200;28;20181;-74
2023/07/12 11:17:27;;;;;;;2.92;2.40;;;;;;;31.94;65.97;99947.06;5067561;28;20186;-75
2023/07/12 11:20:08;;;;;;;2.50;2.30;;;;;;;32.18;66.24;99940.16;5065919;28;20248;-74
2023/07/12 11:22:59;;;;;;;4.68;2.38;;;;;;;32.19;65.74;99939.16;5066658;28;20554;-76
2023/07/12 11:25:42;;;;;;;3.17;2.47;;;;;;;32.22;65.74;99946.81;5065978;28;20197;-74
2023/07/12 11:28:19;;;;;;;2.85;2.28;;;;;;;32.06;66.20;99947.63;5066497;28;20257;-75
2023/07/12 11:30:45;;;;;;;3.95;2.15;;;;;;;31.56;66.13;99938.53;5067670;28;20178;-75
2023/07/12 11:33:27;;;;;;;2.90;2.20;;;;;;;31.83;67.22;99942.03;5053561;28;20189;-74
2023/07/12 11:36:03;;;;;;;2.53;2.30;;;;;;;31.84;66.64;99939.19;5047535;28;20721;-76